createdAt,value
2023-12-24T00:00:47.402Z,6.70
2023-12-24T00:01:47.366Z,5.90
2023-12-24T00:02:47.367Z,5.70
2023-12-24T00:03:47.396Z,5.60
2023-12-24T00:04:47.425Z,7.10
2023-12-24T00:05:47.439Z,5.50
2023-12-24T00:06:47.374Z,5.60
2023-12-24T00:07:47.315Z,5.70
2023-12-24T00:08:47.297Z,6.60
2023-12-24T00:09:47.315Z,6.20
2023-12-24T00:10:47.346Z,6.60
2023-12-24T00:11:47.254Z,6.00
2023-12-24T00:12:47.228Z,6.70
2023-12-24T00:13:47.232Z,7.60
2023-12-24T00:14:47.245Z,8.20
2023-12-24T00:15:47.241Z,8.10
2023-12-24T00:16:47.313Z,9.00
2023-12-24T00:17:47.455Z,8.30
2023-12-24T00:18:47.274Z,8.60
2023-12-24T00:19:47.256Z,7.80
2023-12-24T00:20:47.276Z,9.50
2023-12-24T00:21:47.178Z,9.20
2023-12-24T00:22:47.225Z,9.00
2023-12-24T00:23:47.179Z,10.90
2023-12-24T00:24:47.147Z,9.00
2023-12-24T00:25:47.212Z,9.30
2023-12-24T00:26:47.117Z,9.40
2023-12-24T00:27:47.107Z,9.10
2023-12-24T00:28:47.163Z,8.20
2023-12-24T00:29:47.130Z,7.40
2023-12-24T00:30:47.201Z,8.40
2023-12-24T00:31:47.106Z,9.60
2023-12-24T00:32:47.120Z,10.30
2023-12-24T00:33:47.081Z,9.80
2023-12-24T00:34:47.112Z,9.90
2023-12-24T00:35:47.077Z,11.00
2023-12-24T00:36:47.049Z,11.10
2023-12-24T00:37:47.061Z,11.70
2023-12-24T00:38:47.046Z,10.60
2023-12-24T00:39:47.006Z,10.10
2023-12-24T00:40:47.085Z,9.90
2023-12-24T00:41:47.003Z,13.80
2023-12-24T00:42:46.986Z,12.40
2023-12-24T00:43:46.972Z,9.10
2023-12-24T00:44:46.957Z,7.80
2023-12-24T00:45:46.964Z,5.50
2023-12-24T00:46:47.031Z,6.50
2023-12-24T00:47:47.339Z,8.10
2023-12-24T00:48:47.040Z,11.70
2023-12-24T00:49:46.950Z,10.10
2023-12-24T00:50:46.917Z,10.60
2023-12-24T00:51:46.890Z,9.10
2023-12-24T00:52:46.961Z,7.00
2023-12-24T00:53:46.898Z,8.80
2023-12-24T00:54:46.884Z,7.00
2023-12-24T00:55:46.891Z,6.00
2023-12-24T00:56:46.857Z,6.10
2023-12-24T00:57:46.869Z,6.90
2023-12-24T00:58:46.918Z,7.60
2023-12-24T00:59:46.828Z,8.10
2023-12-24T01:00:46.811Z,7.70
2023-12-24T01:01:46.826Z,8.60
2023-12-24T01:02:46.816Z,9.20
2023-12-24T01:03:46.912Z,9.30
2023-12-24T01:04:46.907Z,8.40
2023-12-24T01:05:46.938Z,9.50
2023-12-24T01:06:46.784Z,10.20
2023-12-24T01:07:46.749Z,9.80
2023-12-24T01:08:46.764Z,8.60
2023-12-24T01:09:46.749Z,9.40
2023-12-24T01:10:46.806Z,8.60
2023-12-24T01:11:46.795Z,9.10
2023-12-24T01:12:46.743Z,10.20
2023-12-24T01:13:46.765Z,9.10
2023-12-24T01:14:46.722Z,9.90
2023-12-24T01:15:46.714Z,7.60
2023-12-24T01:16:46.797Z,10.50
2023-12-24T01:17:46.848Z,7.50
2023-12-24T01:18:46.752Z,8.00
2023-12-24T01:19:46.685Z,7.60
2023-12-24T01:20:46.688Z,7.90
2023-12-24T01:21:46.676Z,6.90
2023-12-24T01:22:46.752Z,7.10
2023-12-24T01:23:46.680Z,7.00
2023-12-24T01:24:46.637Z,6.50
2023-12-24T01:25:46.633Z,6.10
2023-12-24T01:26:46.609Z,6.80
2023-12-24T01:27:46.623Z,6.20
2023-12-24T01:28:46.679Z,6.50
2023-12-24T01:29:46.619Z,6.60
2023-12-24T01:30:46.609Z,6.10
2023-12-24T01:31:46.582Z,6.80
2023-12-24T01:32:46.717Z,6.80
2023-12-24T01:33:46.665Z,6.60
2023-12-24T01:34:46.604Z,6.80
2023-12-24T01:35:46.588Z,7.00
2023-12-24T01:36:46.496Z,7.60
2023-12-24T01:37:46.529Z,7.60
2023-12-24T01:38:46.515Z,7.30
2023-12-24T01:39:46.494Z,6.70
2023-12-24T01:40:46.532Z,7.70
2023-12-24T01:41:46.505Z,7.30
2023-12-24T01:42:46.607Z,8.50
2023-12-24T01:43:46.462Z,7.20
2023-12-24T01:44:46.447Z,6.60
2023-12-24T01:45:46.463Z,6.20
2023-12-24T01:46:46.517Z,7.60
2023-12-24T01:47:52.091Z,7.10
2023-12-24T01:48:46.604Z,7.10
2023-12-24T01:49:46.466Z,4.60
2023-12-24T01:50:46.492Z,7.00
2023-12-24T01:51:46.497Z,7.60
2023-12-24T01:52:46.463Z,7.20
2023-12-24T01:53:46.357Z,6.30
2023-12-24T01:54:46.386Z,7.00
2023-12-24T01:55:46.380Z,8.40
2023-12-24T01:56:46.363Z,8.00
2023-12-24T01:57:46.363Z,8.30
2023-12-24T01:58:46.410Z,7.40
2023-12-24T01:59:46.335Z,7.00
2023-12-24T02:00:46.377Z,8.40
2023-12-24T02:01:46.317Z,6.50
2023-12-24T02:02:46.402Z,8.40
2023-12-24T02:03:46.315Z,8.40
2023-12-24T02:04:46.367Z,7.60
2023-12-24T02:05:46.347Z,7.60
2023-12-24T02:06:46.287Z,7.80
2023-12-24T02:07:46.229Z,8.30
2023-12-24T02:08:46.261Z,9.10
2023-12-24T02:09:46.316Z,8.50
2023-12-24T02:10:46.298Z,8.20
2023-12-24T02:11:46.210Z,8.70
2023-12-24T02:12:46.180Z,9.40
2023-12-24T02:13:46.205Z,10.00
2023-12-24T02:14:46.211Z,13.00
2023-12-24T02:15:46.187Z,12.50
2023-12-24T02:16:46.249Z,9.20
2023-12-24T02:17:46.286Z,9.20
2023-12-24T02:18:46.267Z,10.40
2023-12-24T02:19:46.162Z,12.40
2023-12-24T02:20:46.189Z,10.60
2023-12-24T02:21:46.149Z,10.30
2023-12-24T02:22:46.186Z,10.00
2023-12-24T02:23:46.124Z,11.30
2023-12-24T02:24:46.129Z,12.70
2023-12-24T02:25:46.066Z,13.90
2023-12-24T02:26:46.120Z,12.30
2023-12-24T02:27:46.060Z,12.00
2023-12-24T02:28:46.184Z,9.70
2023-12-24T02:29:46.086Z,9.30
2023-12-24T02:30:46.106Z,9.60
2023-12-24T02:31:46.058Z,10.20
2023-12-24T02:32:46.219Z,10.40
2023-12-24T02:33:46.114Z,12.90
2023-12-24T02:34:46.120Z,12.60
2023-12-24T02:35:45.983Z,13.60
2023-12-24T02:36:46.042Z,12.10
2023-12-24T02:37:46.000Z,12.60
2023-12-24T02:38:46.019Z,12.60
2023-12-24T02:39:45.939Z,13.10
2023-12-24T02:40:46.028Z,11.70
2023-12-24T02:41:45.974Z,11.10
2023-12-24T02:42:45.960Z,12.70
2023-12-24T02:43:45.964Z,11.90
2023-12-24T02:44:45.939Z,11.80
2023-12-24T02:45:45.934Z,7.80
2023-12-24T02:46:46.002Z,9.10
2023-12-24T02:47:46.071Z,10.10
2023-12-24T02:48:45.974Z,8.70
2023-12-24T02:49:45.914Z,7.40
2023-12-24T02:50:45.883Z,12.60
2023-12-24T02:51:45.873Z,10.60
2023-12-24T02:52:45.915Z,8.90
2023-12-24T02:53:45.904Z,11.30
2023-12-24T02:54:45.876Z,7.80
2023-12-24T02:55:45.812Z,8.50
2023-12-24T02:56:45.801Z,6.50
2023-12-24T02:57:45.775Z,5.30
2023-12-24T02:58:45.867Z,9.40
2023-12-24T02:59:45.836Z,8.00
2023-12-24T03:00:45.781Z,7.70
2023-12-24T03:01:45.782Z,6.80
2023-12-24T03:02:45.834Z,7.90
2023-12-24T03:03:45.839Z,7.10
2023-12-24T03:04:45.817Z,7.00
2023-12-24T03:05:45.831Z,6.50
2023-12-24T03:06:45.767Z,6.60
2023-12-24T03:07:45.758Z,6.60
2023-12-24T03:08:45.746Z,10.20
2023-12-24T03:09:45.693Z,8.10
2023-12-24T03:10:45.809Z,7.30
2023-12-24T03:11:45.737Z,6.10
2023-12-24T03:12:45.723Z,6.70
2023-12-24T03:13:45.697Z,7.10
2023-12-24T03:14:45.666Z,6.90
2023-12-24T03:15:45.689Z,7.00
2023-12-24T03:16:45.714Z,6.80
2023-12-24T03:17:45.930Z,6.30
2023-12-24T03:18:45.692Z,7.00
2023-12-24T03:19:45.604Z,7.40
2023-12-24T03:20:45.671Z,7.10
2023-12-24T03:21:45.611Z,6.30
2023-12-24T03:22:45.710Z,7.20
2023-12-24T03:23:45.615Z,8.50
2023-12-24T03:24:45.583Z,7.30
2023-12-24T03:25:45.554Z,8.90
2023-12-24T03:26:45.569Z,7.10
2023-12-24T03:27:45.584Z,8.10
2023-12-24T03:28:45.604Z,8.20
2023-12-24T03:29:45.534Z,6.10
2023-12-24T03:30:45.560Z,6.70
2023-12-24T03:31:45.507Z,8.40
2023-12-24T03:32:45.564Z,10.60
2023-12-24T03:33:45.903Z,9.10
2023-12-24T03:34:45.617Z,7.70
2023-12-24T03:35:45.629Z,9.10
2023-12-24T03:36:45.492Z,8.50
2023-12-24T03:37:45.498Z,6.40
2023-12-24T03:38:45.463Z,6.90
2023-12-24T03:39:45.478Z,7.90
2023-12-24T03:40:45.540Z,8.50
2023-12-24T03:41:45.487Z,7.80
2023-12-24T03:42:45.435Z,7.40
2023-12-24T03:43:45.436Z,8.50
2023-12-24T03:44:45.395Z,8.50
2023-12-24T03:45:45.401Z,7.30
2023-12-24T03:46:45.441Z,6.30
2023-12-24T03:47:45.531Z,6.60
2023-12-24T03:48:45.454Z,6.80
2023-12-24T03:49:45.342Z,7.50
2023-12-24T03:50:45.491Z,7.50
2023-12-24T03:51:45.355Z,10.10
2023-12-24T03:52:45.417Z,7.20
2023-12-24T03:53:45.551Z,7.40
2023-12-24T03:54:45.352Z,6.20
2023-12-24T03:55:45.327Z,7.30
2023-12-24T03:56:45.295Z,6.80
2023-12-24T03:57:45.340Z,7.60
2023-12-24T03:58:45.377Z,5.50
2023-12-24T03:59:45.338Z,6.90
2023-12-24T04:00:45.332Z,8.50
2023-12-24T04:01:45.311Z,9.60
2023-12-24T04:02:45.308Z,7.80
2023-12-24T04:03:45.243Z,8.50
2023-12-24T04:04:45.330Z,8.40
2023-12-24T04:05:45.300Z,9.10
2023-12-24T04:06:45.204Z,11.50
2023-12-24T04:07:45.201Z,13.50
2023-12-24T04:08:45.214Z,12.50
2023-12-24T04:09:45.204Z,9.80
2023-12-24T04:10:45.962Z,8.00
2023-12-24T04:11:45.165Z,7.80
2023-12-24T04:12:45.226Z,7.40
2023-12-24T04:13:45.146Z,5.90
2023-12-24T04:14:45.244Z,5.40
2023-12-24T04:15:45.148Z,6.40
2023-12-24T04:16:45.209Z,6.40
2023-12-24T04:17:45.379Z,5.90
2023-12-24T04:18:45.189Z,6.50
2023-12-24T04:19:45.106Z,7.20
2023-12-24T04:20:45.155Z,7.20
2023-12-24T04:21:45.078Z,7.30
2023-12-24T04:22:45.148Z,6.20
2023-12-24T04:23:45.087Z,5.90
2023-12-24T04:24:45.077Z,5.80
2023-12-24T04:25:45.038Z,6.20
2023-12-24T04:26:45.079Z,5.30
2023-12-24T04:27:45.028Z,4.80
2023-12-24T04:28:45.081Z,5.80
2023-12-24T04:29:45.000Z,4.80
2023-12-24T04:30:45.062Z,5.40
2023-12-24T04:31:44.977Z,4.70
2023-12-24T04:32:45.111Z,4.50
2023-12-24T04:33:45.098Z,4.70
2023-12-24T04:34:45.001Z,4.30
2023-12-24T04:35:45.039Z,4.50
2023-12-24T04:36:44.954Z,3.60
2023-12-24T04:37:44.978Z,3.50
2023-12-24T04:38:44.994Z,3.90
2023-12-24T04:39:44.944Z,4.10
2023-12-24T04:40:44.983Z,4.30
2023-12-24T04:41:44.935Z,4.10
2023-12-24T04:42:44.913Z,3.30
2023-12-24T04:43:44.888Z,3.80
2023-12-24T04:44:44.860Z,4.00
2023-12-24T04:45:44.895Z,4.50
2023-12-24T04:46:44.958Z,4.00
2023-12-24T04:47:44.945Z,4.00
2023-12-24T04:48:44.936Z,4.60
2023-12-24T04:49:44.843Z,3.90
2023-12-24T04:50:44.960Z,5.20
2023-12-24T04:51:44.874Z,5.20
2023-12-24T04:52:44.873Z,6.00
2023-12-24T04:53:44.887Z,4.40
2023-12-24T04:54:44.876Z,3.80
2023-12-24T04:55:44.822Z,4.10
2023-12-24T04:56:44.803Z,4.20
2023-12-24T04:57:44.786Z,5.00
2023-12-24T04:58:44.861Z,4.80
2023-12-24T04:59:44.810Z,5.20
2023-12-24T05:00:44.739Z,4.00
2023-12-24T05:01:44.732Z,5.90
2023-12-24T05:02:44.772Z,5.00
2023-12-24T05:03:44.746Z,6.10
2023-12-24T05:04:44.854Z,4.70
2023-12-24T05:05:44.812Z,4.50
2023-12-24T05:06:44.726Z,4.30
2023-12-24T05:07:44.712Z,3.80
2023-12-24T05:08:44.716Z,3.90
2023-12-24T05:09:46.430Z,4.60
2023-12-24T05:10:44.732Z,4.90
2023-12-24T05:11:44.712Z,4.50
2023-12-24T05:12:44.665Z,4.40
2023-12-24T05:13:44.716Z,4.70
2023-12-24T05:14:44.677Z,4.70
2023-12-24T05:15:44.628Z,5.80
2023-12-24T05:16:44.696Z,5.00
2023-12-24T05:17:44.676Z,6.10
2023-12-24T05:18:44.629Z,5.60
2023-12-24T05:19:44.621Z,5.40
2023-12-24T05:20:44.661Z,5.20
2023-12-24T05:21:44.590Z,5.40
2023-12-24T05:22:44.664Z,4.60
2023-12-24T05:23:44.569Z,5.20
2023-12-24T05:24:44.532Z,5.50
2023-12-24T05:25:44.579Z,5.20
2023-12-24T05:26:44.566Z,4.90
2023-12-24T05:27:44.493Z,6.40
2023-12-24T05:28:44.569Z,4.70
2023-12-24T05:29:44.636Z,7.80
2023-12-24T05:30:44.504Z,8.20
2023-12-24T05:31:44.470Z,8.00
2023-12-24T05:32:44.640Z,7.40
2023-12-24T05:33:44.576Z,7.80
2023-12-24T05:34:44.568Z,6.80
2023-12-24T05:35:44.539Z,5.80
2023-12-24T05:36:44.430Z,7.50
2023-12-24T05:37:44.434Z,7.20
2023-12-24T05:38:44.605Z,8.00
2023-12-24T05:39:44.424Z,8.60
2023-12-24T05:40:44.465Z,8.30
2023-12-24T05:41:44.408Z,7.40
2023-12-24T05:42:44.342Z,7.20
2023-12-24T05:43:44.363Z,8.80
2023-12-24T05:44:44.392Z,7.70
2023-12-24T05:45:44.317Z,7.70
2023-12-24T05:46:44.390Z,7.60
2023-12-24T05:47:44.342Z,8.60
2023-12-24T05:48:44.440Z,9.10
2023-12-24T05:49:44.317Z,10.00
2023-12-24T05:50:44.333Z,9.30
2023-12-24T05:51:44.251Z,8.30
2023-12-24T05:52:44.305Z,9.60
2023-12-24T05:53:44.315Z,10.80
2023-12-24T05:54:44.232Z,11.40
2023-12-24T05:55:44.228Z,10.70
2023-12-24T05:56:44.309Z,11.10
2023-12-24T05:57:44.212Z,10.00
2023-12-24T05:58:44.294Z,10.40
2023-12-24T05:59:44.253Z,11.00
2023-12-24T06:00:44.194Z,10.80
2023-12-24T06:01:44.208Z,10.20
2023-12-24T06:02:44.275Z,11.40
2023-12-24T06:03:44.210Z,10.20
2023-12-24T06:04:44.254Z,11.80
2023-12-24T06:05:44.330Z,11.80
2023-12-24T06:06:44.201Z,11.80
2023-12-24T06:07:44.137Z,12.70
2023-12-24T06:08:44.190Z,12.20
2023-12-24T06:09:44.185Z,12.20
2023-12-24T06:10:44.193Z,13.60
2023-12-24T06:11:44.180Z,15.70
2023-12-24T06:12:44.105Z,16.50
2023-12-24T06:13:44.110Z,15.40
2023-12-24T06:14:44.153Z,15.60
2023-12-24T06:15:44.077Z,17.00
2023-12-24T06:16:44.108Z,18.40
2023-12-24T06:17:44.176Z,16.40
2023-12-24T06:18:44.322Z,20.30
2023-12-24T06:19:44.157Z,17.90
2023-12-24T06:20:44.076Z,18.60
2023-12-24T06:21:44.027Z,14.70
2023-12-24T06:22:44.088Z,18.00
2023-12-24T06:23:44.016Z,15.90
2023-12-24T06:24:43.976Z,17.20
2023-12-24T06:25:43.975Z,13.80
2023-12-24T06:26:44.048Z,16.20
2023-12-24T06:27:43.973Z,13.30
2023-12-24T06:28:44.074Z,14.00
2023-12-24T06:29:43.987Z,14.60
2023-12-24T06:30:43.927Z,17.90
2023-12-24T06:31:43.960Z,8.20
2023-12-24T06:32:43.936Z,16.10
2023-12-24T06:33:43.977Z,14.40
2023-12-24T06:34:43.980Z,10.40
2023-12-24T06:35:43.937Z,11.90
2023-12-24T06:36:43.820Z,8.20
2023-12-24T06:37:43.824Z,10.00
2023-12-24T06:38:43.835Z,15.30
2023-12-24T06:39:43.795Z,14.20
2023-12-24T06:40:43.878Z,6.40
2023-12-24T06:41:43.821Z,6.30
2023-12-24T06:42:43.780Z,8.10
2023-12-24T06:43:43.759Z,7.60
2023-12-24T06:44:43.822Z,7.40
2023-12-24T06:45:43.760Z,4.40
2023-12-24T06:46:43.780Z,5.30
2023-12-24T06:47:43.884Z,6.40
2023-12-24T06:48:43.787Z,10.40
2023-12-24T06:49:43.800Z,5.60
2023-12-24T06:50:43.738Z,5.90
2023-12-24T06:51:43.711Z,9.80
2023-12-24T06:52:43.748Z,6.90
2023-12-24T06:53:43.726Z,6.70
2023-12-24T06:54:43.659Z,7.30
2023-12-24T06:55:43.669Z,6.40
2023-12-24T06:56:43.667Z,8.50
2023-12-24T06:57:43.622Z,6.00
2023-12-24T06:58:43.714Z,6.30
2023-12-24T06:59:43.720Z,6.00
2023-12-24T07:00:43.635Z,7.30
2023-12-24T07:01:43.595Z,6.80
2023-12-24T07:02:43.654Z,7.90
2023-12-24T07:03:43.686Z,13.60
2023-12-24T07:04:43.615Z,6.10
2023-12-24T07:05:43.708Z,8.30
2023-12-24T07:06:43.596Z,6.00
2023-12-24T07:07:43.540Z,6.60
2023-12-24T07:08:43.602Z,5.90
2023-12-24T07:09:43.497Z,8.50
2023-12-24T07:10:43.588Z,6.40
2023-12-24T07:11:43.523Z,6.90
2023-12-24T07:12:43.536Z,7.00
2023-12-24T07:13:43.481Z,7.00
2023-12-24T07:14:43.621Z,7.60
2023-12-24T07:15:43.489Z,6.80
2023-12-24T07:16:43.545Z,7.30
2023-12-24T07:17:43.649Z,7.60
2023-12-24T07:18:43.512Z,7.00
2023-12-24T07:19:43.423Z,6.20
2023-12-24T07:20:43.577Z,7.40
2023-12-24T07:21:43.439Z,5.90
2023-12-24T07:22:43.474Z,6.50
2023-12-24T07:23:43.611Z,6.70
2023-12-24T07:24:43.370Z,5.90
2023-12-24T07:25:43.396Z,6.40
2023-12-24T07:26:43.487Z,6.40
2023-12-24T07:27:43.399Z,6.30
2023-12-24T07:28:43.440Z,7.20
2023-12-24T07:29:43.374Z,5.30
2023-12-24T07:30:43.360Z,5.60
2023-12-24T07:31:43.367Z,6.50
2023-12-24T07:32:43.459Z,6.40
2023-12-24T07:33:43.433Z,5.70
2023-12-24T07:34:43.379Z,4.80
2023-12-24T07:35:43.374Z,6.10
2023-12-24T07:36:43.301Z,5.80
2023-12-24T07:37:43.315Z,5.50
2023-12-24T07:38:44.861Z,6.70
2023-12-24T07:39:43.294Z,5.10
2023-12-24T07:40:43.320Z,5.20
2023-12-24T07:41:43.293Z,6.00
2023-12-24T07:42:43.219Z,6.30
2023-12-24T07:43:43.237Z,5.30
2023-12-24T07:44:43.234Z,5.40
2023-12-24T07:45:45.026Z,5.50
2023-12-24T07:46:43.289Z,4.40
2023-12-24T07:47:43.283Z,5.80
2023-12-24T07:48:43.257Z,5.20
2023-12-24T07:49:43.169Z,4.90
2023-12-24T07:50:43.232Z,5.00
2023-12-24T07:51:43.129Z,4.50
2023-12-24T07:52:43.215Z,5.00
2023-12-24T07:53:43.168Z,4.80
2023-12-24T07:54:43.135Z,5.10
2023-12-24T07:55:43.109Z,5.30
2023-12-24T07:56:43.109Z,4.10
2023-12-24T07:57:43.084Z,5.20
2023-12-24T07:58:43.146Z,5.40
2023-12-24T07:59:43.129Z,6.30
2023-12-24T08:00:43.108Z,5.30
2023-12-24T08:01:43.086Z,5.30
2023-12-24T08:02:43.246Z,4.20
2023-12-24T08:03:43.101Z,3.70
2023-12-24T08:04:43.129Z,3.00
2023-12-24T08:05:43.119Z,3.40
2023-12-24T08:06:43.142Z,4.00
2023-12-24T08:07:43.042Z,4.00
2023-12-24T08:08:43.019Z,3.60
2023-12-24T08:09:43.008Z,3.40
2023-12-24T08:10:43.060Z,3.40
2023-12-24T08:11:43.030Z,2.90
2023-12-24T08:12:42.980Z,3.80
2023-12-24T08:13:42.942Z,3.30
2023-12-24T08:14:42.970Z,3.20
2023-12-24T08:15:42.931Z,3.50
2023-12-24T08:16:42.973Z,3.30
2023-12-24T08:17:43.125Z,3.40
2023-12-24T08:18:42.970Z,3.20
2023-12-24T08:19:42.906Z,3.20
2023-12-24T08:20:42.937Z,2.90
2023-12-24T08:21:42.902Z,2.30
2023-12-24T08:22:42.933Z,2.60
2023-12-24T08:23:42.861Z,2.80
2023-12-24T08:24:42.886Z,2.70
2023-12-24T08:25:42.832Z,2.60
2023-12-24T08:26:42.872Z,2.80
2023-12-24T08:27:42.814Z,2.80
2023-12-24T08:28:42.886Z,2.10
2023-12-24T08:29:42.852Z,2.00
2023-12-24T08:30:42.867Z,2.10
2023-12-24T08:31:42.830Z,2.50
2023-12-24T08:32:42.870Z,2.10
2023-12-24T08:33:42.919Z,2.60
2023-12-24T08:34:42.811Z,1.90
2023-12-24T08:35:42.873Z,2.10
2023-12-24T08:36:42.771Z,2.30
2023-12-24T08:37:42.738Z,2.60
2023-12-24T08:38:42.706Z,1.60
2023-12-24T08:39:42.734Z,1.90
2023-12-24T08:40:42.748Z,1.70
2023-12-24T08:41:42.792Z,1.80
2023-12-24T08:42:42.682Z,1.60
2023-12-24T08:43:42.683Z,1.70
2023-12-24T08:44:42.729Z,1.90
2023-12-24T08:45:42.694Z,1.40
2023-12-24T08:46:42.720Z,1.80
2023-12-24T08:47:42.786Z,1.70
2023-12-24T08:48:42.737Z,1.60
2023-12-24T08:49:42.647Z,1.90
2023-12-24T08:50:42.678Z,1.60
2023-12-24T08:51:42.645Z,1.40
2023-12-24T08:52:42.664Z,1.50
2023-12-24T08:53:42.616Z,2.40
2023-12-24T08:54:42.588Z,1.50
2023-12-24T08:55:42.580Z,1.30
2023-12-24T08:56:42.576Z,1.20
2023-12-24T08:57:42.561Z,1.40
2023-12-24T08:58:42.632Z,1.20
2023-12-24T08:59:42.579Z,1.30
2023-12-24T09:00:42.540Z,1.40
2023-12-24T09:01:42.547Z,1.10
2023-12-24T09:02:42.592Z,1.90
2023-12-24T09:03:42.542Z,1.60
2023-12-24T09:04:42.578Z,1.10
2023-12-24T09:05:42.519Z,1.10
2023-12-24T09:06:42.584Z,1.30
2023-12-24T09:07:42.464Z,1.10
2023-12-24T09:08:42.475Z,1.10
2023-12-24T09:09:42.452Z,1.00
2023-12-24T09:10:42.491Z,1.00
2023-12-24T09:11:42.467Z,0.90
2023-12-24T09:12:42.439Z,1.10
2023-12-24T09:13:42.419Z,0.80
2023-12-24T09:14:42.408Z,1.10
2023-12-24T09:15:42.388Z,0.90
2023-12-24T09:16:42.431Z,1.10
2023-12-24T09:17:42.650Z,1.10
2023-12-24T09:18:42.450Z,1.00
2023-12-24T09:19:42.358Z,0.90
2023-12-24T09:20:42.388Z,1.10
2023-12-24T09:21:42.373Z,0.90
2023-12-24T09:22:42.390Z,0.90
2023-12-24T09:23:42.357Z,0.80
2023-12-24T09:24:42.345Z,0.70
2023-12-24T09:25:42.293Z,0.80
2023-12-24T09:26:42.345Z,0.80
2023-12-24T09:27:42.260Z,0.80
2023-12-24T09:28:42.295Z,0.90
2023-12-24T09:29:42.319Z,0.60
2023-12-24T09:30:42.301Z,0.80
2023-12-24T09:31:42.225Z,0.70
2023-12-24T09:32:42.253Z,0.70
2023-12-24T09:33:42.293Z,0.50
2023-12-24T09:34:42.265Z,0.80
2023-12-24T09:35:42.238Z,0.70
2023-12-24T09:36:42.218Z,0.60
2023-12-24T09:37:42.193Z,0.50
2023-12-24T09:38:42.251Z,0.70
2023-12-24T09:39:42.196Z,0.60
2023-12-24T09:40:42.211Z,0.60
2023-12-24T09:41:42.232Z,0.60
2023-12-24T09:42:42.157Z,0.50
2023-12-24T09:43:42.143Z,0.50
2023-12-24T09:44:42.149Z,0.40
2023-12-24T09:45:42.095Z,0.50
2023-12-24T09:46:42.160Z,0.40
2023-12-24T09:47:42.170Z,0.50
2023-12-24T09:48:42.132Z,0.40
2023-12-24T09:49:42.086Z,0.50
2023-12-24T09:50:45.698Z,0.50
2023-12-24T09:51:42.047Z,0.50
2023-12-24T09:52:42.121Z,0.50
2023-12-24T09:53:42.110Z,0.60
2023-12-24T09:54:42.005Z,0.50
2023-12-24T09:55:41.989Z,0.50
2023-12-24T09:56:42.133Z,0.40
2023-12-24T09:57:41.988Z,0.40
2023-12-24T09:58:42.033Z,0.50
2023-12-24T09:59:41.975Z,0.50
2023-12-24T10:00:42.024Z,0.60
2023-12-24T10:01:41.971Z,0.30
2023-12-24T10:02:41.966Z,0.60
2023-12-24T10:03:41.973Z,0.40
2023-12-24T10:04:42.008Z,0.50
2023-12-24T10:05:41.988Z,0.60
2023-12-24T10:06:41.982Z,0.70
2023-12-24T10:07:41.891Z,0.60
2023-12-24T10:08:42.006Z,0.50
2023-12-24T10:09:41.900Z,0.50
2023-12-24T10:10:41.938Z,0.40
2023-12-24T10:11:41.954Z,0.70
2023-12-24T10:12:41.853Z,0.60
2023-12-24T10:13:41.848Z,0.60
2023-12-24T10:14:41.971Z,0.50
2023-12-24T10:15:41.983Z,0.60
2023-12-24T10:16:41.877Z,0.50
2023-12-24T10:17:41.848Z,0.50
2023-12-24T10:18:41.842Z,0.50
2023-12-24T10:19:41.812Z,0.50
2023-12-24T10:20:41.798Z,0.40
2023-12-24T10:21:41.767Z,0.50
2023-12-24T10:22:41.826Z,0.60
2023-12-24T10:23:41.816Z,0.40
2023-12-24T10:24:41.883Z,0.40
2023-12-24T10:25:41.730Z,0.40
2023-12-24T10:26:41.725Z,0.50
2023-12-24T10:27:41.692Z,0.60
2023-12-24T10:28:41.753Z,0.60
2023-12-24T10:29:41.685Z,0.40
2023-12-24T10:30:41.722Z,0.60
2023-12-24T10:31:41.654Z,0.60
2023-12-24T10:32:41.803Z,0.60
2023-12-24T10:33:41.735Z,0.70
2023-12-24T10:34:41.790Z,0.60
2023-12-24T10:35:41.683Z,0.60
2023-12-24T10:36:41.598Z,0.70
2023-12-24T10:37:41.589Z,0.70
2023-12-24T10:38:41.700Z,0.60
2023-12-24T10:39:41.597Z,0.60
2023-12-24T10:40:41.630Z,0.50
2023-12-24T10:41:41.619Z,0.60
2023-12-24T10:42:41.583Z,0.60
2023-12-24T10:43:41.560Z,0.60
2023-12-24T10:44:41.558Z,0.60
2023-12-24T10:45:41.525Z,0.80
2023-12-24T10:46:41.576Z,0.50
2023-12-24T10:47:41.696Z,0.80
2023-12-24T10:48:41.528Z,0.60
2023-12-24T10:49:41.516Z,0.60
2023-12-24T10:50:41.516Z,0.50
2023-12-24T10:51:41.478Z,0.60
2023-12-24T10:52:41.541Z,0.50
2023-12-24T10:53:41.542Z,0.70
2023-12-24T10:54:41.469Z,0.60
2023-12-24T10:55:41.461Z,0.50
2023-12-24T10:56:41.453Z,0.70
2023-12-24T10:57:41.423Z,0.70
2023-12-24T10:58:41.514Z,0.50
2023-12-24T10:59:41.467Z,0.70
2023-12-24T11:00:41.415Z,0.60
2023-12-24T11:01:41.356Z,0.50
2023-12-24T11:02:41.475Z,0.70
2023-12-24T11:03:41.446Z,0.50
2023-12-24T11:04:41.439Z,0.60
2023-12-24T11:05:41.575Z,0.50
2023-12-24T11:06:41.353Z,0.50
2023-12-24T11:07:41.304Z,0.50
2023-12-24T11:08:41.341Z,0.50
2023-12-24T11:09:43.600Z,0.60
2023-12-24T11:10:41.382Z,0.70
2023-12-24T11:11:41.326Z,0.50
2023-12-24T11:12:41.304Z,0.40
2023-12-24T11:13:41.266Z,0.50
2023-12-24T11:14:41.305Z,0.50
2023-12-24T11:15:41.253Z,0.40
2023-12-24T11:16:41.351Z,0.50
2023-12-24T11:17:41.337Z,0.50
2023-12-24T11:18:41.246Z,0.60
2023-12-24T11:19:41.236Z,0.50
2023-12-24T11:20:41.281Z,0.50
2023-12-24T11:21:41.193Z,0.40
2023-12-24T11:22:41.291Z,0.60
2023-12-24T11:23:41.240Z,0.50
2023-12-24T11:24:48.941Z,0.50
2023-12-24T11:25:41.165Z,0.50
2023-12-24T11:26:41.260Z,0.60
2023-12-24T11:27:51.645Z,0.40
2023-12-24T11:28:41.210Z,0.50
2023-12-24T11:29:41.421Z,0.40
2023-12-24T11:30:41.123Z,0.40
2023-12-24T11:31:41.085Z,0.40
2023-12-24T11:32:41.150Z,0.40
2023-12-24T11:33:41.248Z,0.50
2023-12-24T11:34:41.172Z,0.40
2023-12-24T11:35:41.162Z,0.30
2023-12-24T11:36:41.059Z,0.40
2023-12-24T11:37:41.077Z,0.40
2023-12-24T11:38:41.136Z,0.40
2023-12-24T11:39:41.003Z,0.90
2023-12-24T11:40:41.094Z,0.50
2023-12-24T11:41:41.103Z,0.30
2023-12-24T11:42:41.034Z,0.50
2023-12-24T11:43:40.996Z,0.50
2023-12-24T11:44:41.013Z,0.40
2023-12-24T11:45:40.963Z,0.30
2023-12-24T11:46:41.011Z,0.40
2023-12-24T11:47:41.028Z,0.40
2023-12-24T11:48:41.031Z,0.40
2023-12-24T11:49:40.931Z,0.40
2023-12-24T11:50:40.931Z,0.40
2023-12-24T11:51:40.924Z,0.40
2023-12-24T11:52:40.971Z,0.40
2023-12-24T11:53:40.941Z,0.30
2023-12-24T11:54:40.913Z,0.40
2023-12-24T11:55:40.884Z,0.40
2023-12-24T11:56:40.904Z,0.50
2023-12-24T11:57:40.850Z,0.30
2023-12-24T11:58:40.905Z,0.50
2023-12-24T11:59:40.924Z,0.50
2023-12-24T12:00:40.857Z,0.40
2023-12-24T12:01:40.813Z,0.60
2023-12-24T12:02:40.931Z,0.60
2023-12-24T12:03:40.875Z,0.40
2023-12-24T12:04:40.923Z,0.50
2023-12-24T12:05:40.834Z,0.40
2023-12-24T12:06:40.915Z,0.60
2023-12-24T12:07:40.776Z,0.40
2023-12-24T12:08:40.761Z,0.50
2023-12-24T12:09:40.746Z,0.60
2023-12-24T12:10:40.821Z,0.70
2023-12-24T12:11:40.733Z,0.60
2023-12-24T12:12:40.723Z,0.60
2023-12-24T12:13:40.689Z,0.40
2023-12-24T12:14:40.724Z,0.40
2023-12-24T12:15:41.287Z,0.50
2023-12-24T12:16:40.731Z,0.60
2023-12-24T12:17:40.754Z,0.50
2023-12-24T12:18:40.768Z,0.60
2023-12-24T12:19:40.685Z,0.60
2023-12-24T12:20:40.670Z,0.40
2023-12-24T12:21:40.627Z,0.50
2023-12-24T12:22:40.701Z,0.60
2023-12-24T12:23:40.649Z,0.40
2023-12-24T12:24:40.605Z,0.50
2023-12-24T12:25:40.603Z,0.60
2023-12-24T12:26:40.674Z,0.40
2023-12-24T12:27:40.556Z,0.60
2023-12-24T12:28:40.695Z,0.50
2023-12-24T12:29:40.602Z,0.60
2023-12-24T12:30:40.581Z,0.60
2023-12-24T12:31:40.553Z,0.50
2023-12-24T12:32:40.617Z,0.40
2023-12-24T12:33:40.560Z,0.60
2023-12-24T12:34:40.611Z,0.50
2023-12-24T12:35:40.550Z,0.60
2023-12-24T12:36:40.475Z,0.40
2023-12-24T12:37:40.503Z,0.50
2023-12-24T12:38:40.500Z,0.50
2023-12-24T12:39:40.470Z,0.50
2023-12-24T12:40:46.535Z,0.40
2023-12-24T12:41:40.503Z,0.50
2023-12-24T12:42:43.579Z,0.60
2023-12-24T12:43:40.412Z,0.50
2023-12-24T12:44:40.460Z,0.40
2023-12-24T12:45:40.393Z,0.40
2023-12-24T12:46:40.461Z,0.60
2023-12-24T12:47:40.665Z,0.40
2023-12-24T12:48:40.736Z,0.50
2023-12-24T12:49:40.360Z,0.60
2023-12-24T12:50:40.387Z,0.40
2023-12-24T12:51:40.349Z,0.40
2023-12-24T12:52:40.424Z,0.40
2023-12-24T12:53:40.354Z,0.50
2023-12-24T12:54:40.323Z,0.50
2023-12-24T12:55:40.322Z,0.40
2023-12-24T12:56:40.360Z,0.50
2023-12-24T12:57:40.304Z,0.40
2023-12-24T12:58:40.339Z,0.40
2023-12-24T12:59:40.334Z,0.40
2023-12-24T13:00:40.333Z,0.50
2023-12-24T13:01:40.277Z,0.60
2023-12-24T13:02:40.541Z,0.50
2023-12-24T13:03:42.618Z,0.40
2023-12-24T13:04:40.284Z,0.40
2023-12-24T13:05:40.279Z,0.40
2023-12-24T13:06:40.260Z,0.40
2023-12-24T13:07:40.184Z,0.50
2023-12-24T13:08:40.346Z,0.50
2023-12-24T13:09:40.181Z,0.40
2023-12-24T13:10:40.245Z,0.60
2023-12-24T13:11:40.204Z,0.40
2023-12-24T13:12:40.181Z,0.40
2023-12-24T13:13:40.130Z,0.60
2023-12-24T13:14:40.186Z,0.50
2023-12-24T13:15:40.334Z,0.50